createdAt,value
2018-01-28T00:01:10.748Z,99893.90
2018-01-28T00:03:40.146Z,99906.55
2018-01-28T00:06:09.894Z,99912.44
2018-01-28T00:08:39.326Z,99912.59
2018-01-28T00:11:12.738Z,99909.58
2018-01-28T00:13:42.627Z,99907.63
2018-01-28T00:16:12.070Z,99909.36
2018-01-28T00:18:41.648Z,99912.19
2018-01-28T00:21:11.366Z,99908.68
2018-01-28T00:23:42.251Z,99903.48
2018-01-28T00:26:11.998Z,99901.09
2018-01-28T00:28:42.352Z,99891.81
2018-01-28T00:31:11.706Z,99884.61
2018-01-28T00:33:41.024Z,99873.84
2018-01-28T00:36:10.614Z,99870.72
2018-01-28T00:38:39.937Z,99861.98
2018-01-28T00:41:10.927Z,99850.20
2018-01-28T00:43:40.317Z,99847.41
2018-01-28T00:46:10.309Z,99828.62
2018-01-28T00:48:41.978Z,99817.69
2018-01-28T00:54:33.427Z,99807.33
2018-01-28T00:57:03.058Z,99819.48
2018-01-28T00:59:32.490Z,99812.69
2018-01-28T01:02:01.951Z,99812.77
2018-01-28T01:04:31.653Z,99815.91
2018-01-28T01:07:01.335Z,99809.55
2018-01-28T01:09:30.981Z,99819.55
2018-01-28T01:12:00.565Z,99823.38
2018-01-28T01:14:30.294Z,99831.06
2018-01-28T01:16:59.954Z,99819.25
2018-01-28T01:19:29.395Z,99821.40
2018-01-28T01:21:59.050Z,99819.00
2018-01-28T01:24:28.455Z,99798.51
2018-01-28T01:26:57.870Z,99795.20
2018-01-28T01:29:27.578Z,99798.75
2018-01-28T01:31:56.959Z,99781.50
2018-01-28T01:34:26.642Z,99781.59
2018-01-28T01:36:56.831Z,99787.69
2018-01-28T01:39:26.361Z,99785.17
2018-01-28T01:41:56.133Z,99787.37
2018-01-28T01:44:25.846Z,99796.55
2018-01-28T01:46:55.581Z,99789.88
2018-01-28T01:49:33.777Z,99777.06
2018-01-28T01:52:03.257Z,99770.45
2018-01-28T01:54:33.362Z,99767.66
2018-01-28T01:57:04.988Z,99754.97
2018-01-28T01:59:35.188Z,99750.89
2018-01-28T02:02:05.140Z,99736.68
2018-01-28T02:04:34.629Z,99720.59
2018-01-28T02:07:04.631Z,99716.38
2018-01-28T02:09:34.554Z,99700.69
2018-01-28T02:12:04.042Z,99678.55
2018-01-28T02:14:34.858Z,99674.59
2018-01-28T02:17:04.287Z,99668.55
2018-01-28T02:19:34.155Z,99663.13
2018-01-28T02:22:03.979Z,99662.55
2018-01-28T02:24:33.289Z,99654.40
2018-01-28T02:27:02.691Z,99654.58
2018-01-28T02:29:32.306Z,99672.36
2018-01-28T02:32:02.094Z,99679.55
2018-01-28T02:34:31.733Z,99679.92
2018-01-28T02:37:01.659Z,99682.42
2018-01-28T02:39:41.798Z,99690.86
2018-01-28T02:42:11.574Z,99689.78
2018-01-28T02:44:41.324Z,99684.97
2018-01-28T02:47:11.240Z,99673.87
2018-01-28T02:49:41.247Z,99677.80
2018-01-28T02:52:11.459Z,99693.55
2018-01-28T02:54:40.975Z,99681.61
2018-01-28T02:57:11.936Z,99692.47
2018-01-28T02:59:41.810Z,99698.13
2018-01-28T03:02:14.558Z,99695.06
2018-01-28T03:04:44.078Z,99699.13
2018-01-28T03:07:13.793Z,99703.37
2018-01-28T03:09:43.222Z,99698.84
2018-01-28T03:12:12.506Z,99688.27
2018-01-28T03:14:42.110Z,99700.92
2018-01-28T03:17:12.236Z,99702.23
2018-01-28T03:19:42.078Z,99705.88
2018-01-28T03:22:11.420Z,99698.61
2018-01-28T03:24:40.718Z,99702.48
2018-01-28T03:27:10.554Z,99711.69
2018-01-28T03:29:40.312Z,99708.66
2018-01-28T03:32:11.552Z,99700.59
2018-01-28T03:34:40.963Z,99703.23
2018-01-28T03:37:10.739Z,99711.25
2018-01-28T03:39:40.386Z,99704.97
2018-01-28T03:42:11.225Z,99708.28
2018-01-28T03:44:40.872Z,99714.75
2018-01-28T03:47:12.628Z,99715.12
2018-01-28T03:49:41.969Z,99716.45
2018-01-28T03:52:11.358Z,99722.57
2018-01-28T03:54:40.878Z,99732.30
2018-01-28T03:57:13.179Z,99727.15
2018-01-28T03:59:42.460Z,99726.73
2018-01-28T04:02:12.062Z,99738.67
2018-01-28T04:04:41.349Z,99744.80
2018-01-28T04:07:10.622Z,99753.86
2018-01-28T04:09:39.959Z,99759.58
2018-01-28T04:12:10.370Z,99756.13
2018-01-28T04:14:39.779Z,99767.02
2018-01-28T04:17:12.490Z,99772.17
2018-01-28T04:19:41.810Z,99774.01
2018-01-28T04:22:11.129Z,99781.61
2018-01-28T04:24:40.461Z,99777.97
2018-01-28T04:27:12.068Z,99770.94
2018-01-28T04:29:41.641Z,99780.42
2018-01-28T04:32:11.294Z,99784.94
2018-01-28T04:34:40.645Z,99783.40
2018-01-28T04:37:10.320Z,99789.51
2018-01-28T04:39:39.958Z,99792.94
2018-01-28T04:42:12.506Z,99785.80
2018-01-28T04:44:41.793Z,99787.66
2018-01-28T04:47:11.094Z,99784.64
2018-01-28T04:49:40.741Z,99782.66
2018-01-28T04:52:10.714Z,99779.58
2018-01-28T04:54:40.533Z,99776.55
2018-01-28T04:57:12.334Z,99775.08
2018-01-28T04:59:41.990Z,99766.81
2018-01-28T05:02:11.412Z,99759.00
2018-01-28T05:04:40.902Z,99767.13
2018-01-28T05:07:10.240Z,99760.91
2018-01-28T05:09:39.741Z,99764.34
2018-01-28T05:12:12.443Z,99759.31
2018-01-28T05:14:41.788Z,99751.52
2018-01-28T05:17:11.100Z,99755.34
2018-01-28T05:19:40.620Z,99753.17
2018-01-28T05:22:10.642Z,99750.36
2018-01-28T05:24:40.203Z,99753.65
2018-01-28T05:27:11.175Z,99774.06
2018-01-28T05:29:40.664Z,99765.78
2018-01-28T05:32:10.800Z,99772.06
2018-01-28T05:34:40.400Z,99774.50
2018-01-28T05:37:11.327Z,99749.08
2018-01-28T05:39:40.640Z,99748.84
2018-01-28T05:42:11.778Z,99753.10
2018-01-28T05:44:41.142Z,99759.93
2018-01-28T05:47:10.824Z,99742.76
2018-01-28T05:49:40.150Z,99752.53
2018-01-28T05:52:11.589Z,99757.00
2018-01-28T05:54:40.941Z,99774.86
2018-01-28T05:57:10.757Z,99784.25
2018-01-28T05:59:40.329Z,99775.16
2018-01-28T06:02:11.289Z,99764.37
2018-01-28T06:04:40.704Z,99782.95
2018-01-28T06:07:10.581Z,99793.75
2018-01-28T06:09:40.259Z,99797.67
2018-01-28T06:12:11.430Z,99800.83
2018-01-28T06:14:40.831Z,99803.77
2018-01-28T06:17:10.240Z,99816.63
2018-01-28T06:19:39.906Z,99818.66
2018-01-28T06:22:10.565Z,99819.71
2018-01-28T06:24:39.854Z,99818.66
2018-01-28T06:27:10.866Z,99812.80
2018-01-28T06:29:40.724Z,99827.28
2018-01-28T06:32:10.665Z,99828.92
2018-01-28T06:34:40.447Z,99829.01
2018-01-28T06:37:11.487Z,99832.97
2018-01-28T06:39:40.863Z,99820.45
2018-01-28T06:42:10.519Z,99830.45
2018-01-28T06:44:40.258Z,99822.80
2018-01-28T06:47:10.335Z,99811.61
2018-01-28T06:49:39.747Z,99804.20
2018-01-28T06:52:10.599Z,99821.28
2018-01-28T06:54:40.208Z,99832.23
2018-01-28T06:57:10.964Z,99826.61
2018-01-28T06:59:40.791Z,99830.38
2018-01-28T07:02:10.510Z,99849.78
2018-01-28T07:04:39.936Z,99862.95
2018-01-28T07:07:12.684Z,99861.25
2018-01-28T07:09:42.192Z,99874.59
2018-01-28T07:12:11.977Z,99874.66
2018-01-28T07:14:42.607Z,99871.59
2018-01-28T07:17:12.294Z,99873.47
2018-01-28T07:19:41.642Z,99876.66
2018-01-28T07:22:14.470Z,99878.45
2018-01-28T07:24:43.869Z,99879.68
2018-01-28T07:27:14.410Z,99871.53
2018-01-28T07:29:49.443Z,99867.46
2018-01-28T07:32:19.641Z,99882.20
2018-01-28T07:34:50.280Z,99898.82
2018-01-28T07:37:26.095Z,99900.30
2018-01-28T07:39:55.802Z,99913.17
2018-01-28T07:42:25.493Z,99916.58
2018-01-28T07:44:55.185Z,99915.89
2018-01-28T07:47:24.650Z,99919.91
2018-01-28T07:49:54.429Z,99925.63
2018-01-28T07:52:24.055Z,99940.48
2018-01-28T07:54:54.693Z,99944.66
2018-01-28T07:57:24.942Z,99953.72
2018-01-28T07:59:54.708Z,99942.61
2018-01-28T08:02:27.962Z,99940.44
2018-01-28T08:04:57.288Z,99928.25
2018-01-28T08:07:26.767Z,99933.53
2018-01-28T08:09:56.487Z,99932.82
2018-01-28T08:12:25.969Z,99940.10
2018-01-28T08:14:55.716Z,99931.33
2018-01-28T08:17:25.334Z,99933.03
2018-01-28T08:19:54.931Z,99944.23
2018-01-28T08:22:24.466Z,99937.42
2018-01-28T08:24:53.974Z,99925.78
2018-01-28T08:27:23.392Z,99940.48
2018-01-28T08:29:52.837Z,99940.10
2018-01-28T08:32:22.707Z,99952.72
2018-01-28T08:34:52.094Z,99950.69
2018-01-28T08:37:21.847Z,99965.25
2018-01-28T08:39:51.913Z,99962.27
2018-01-28T08:42:21.295Z,99954.81
2018-01-28T08:44:50.728Z,99955.31
2018-01-28T08:47:20.263Z,99957.36
2018-01-28T08:49:51.718Z,99961.11
2018-01-28T08:52:21.379Z,99968.64
2018-01-28T08:54:51.093Z,99964.69
2018-01-28T08:57:21.038Z,99975.72
2018-01-28T08:59:50.826Z,99967.41
2018-01-28T09:02:20.146Z,99971.76
2018-01-28T09:04:50.382Z,99984.28
2018-01-28T09:07:20.267Z,99966.75
2018-01-28T09:09:49.613Z,99964.72
2018-01-28T09:12:18.953Z,99966.46
2018-01-28T09:14:48.746Z,99993.70
2018-01-28T09:17:18.346Z,99999.81
2018-01-28T09:19:48.011Z,100000.48
2018-01-28T09:22:17.711Z,100010.80
2018-01-28T09:24:47.258Z,100006.75
2018-01-28T09:27:17.086Z,100011.21
2018-01-28T09:29:46.769Z,100013.45
2018-01-28T09:32:16.269Z,100008.66
2018-01-28T09:34:45.670Z,100013.43
2018-01-28T09:37:16.121Z,100007.55
2018-01-28T09:39:45.946Z,100004.33
2018-01-28T09:42:15.338Z,100002.75
2018-01-28T09:44:45.299Z,99996.72
2018-01-28T09:47:15.226Z,100009.73
2018-01-28T09:49:44.710Z,99993.84
2018-01-28T09:52:16.973Z,99996.98
2018-01-28T09:54:46.498Z,99997.27
2018-01-28T09:57:16.029Z,99981.53
2018-01-28T09:59:45.617Z,100006.92
2018-01-28T10:02:15.026Z,100007.97
2018-01-28T10:04:44.654Z,100018.12
2018-01-28T10:07:14.409Z,100010.20
2018-01-28T10:09:43.738Z,100015.55
2018-01-28T10:12:13.034Z,100002.80
2018-01-28T10:14:42.757Z,99991.88
2018-01-28T10:17:16.331Z,100008.23
2018-01-28T10:19:45.660Z,100008.41
2018-01-28T10:22:15.278Z,99999.88
2018-01-28T10:24:44.638Z,100011.40
2018-01-28T10:27:15.189Z,100008.81
2018-01-28T10:29:44.846Z,100012.92
2018-01-28T10:32:14.401Z,100026.92
2018-01-28T10:34:43.782Z,100025.09
2018-01-28T10:37:13.380Z,100017.47
2018-01-28T10:39:42.930Z,100018.27
2018-01-28T10:42:12.402Z,100017.65
2018-01-28T10:44:42.634Z,100000.00
2018-01-28T10:47:12.038Z,99982.49
2018-01-28T10:49:41.481Z,99977.34
2018-01-28T10:52:11.491Z,99983.91
2018-01-28T10:54:41.424Z,99984.10
2018-01-28T10:57:10.774Z,99984.36
2018-01-28T10:59:40.192Z,99968.87
2018-01-28T11:02:09.572Z,99969.40
2018-01-28T11:04:39.079Z,99951.53
2018-01-28T11:07:10.570Z,99958.72
2018-01-28T11:09:40.214Z,99968.66
2018-01-28T11:12:11.307Z,99967.75
2018-01-28T11:14:49.692Z,99966.34
2018-01-28T11:17:19.836Z,99966.05
2018-01-28T11:19:49.722Z,99976.40
2018-01-28T11:22:19.330Z,99989.70
2018-01-28T11:24:48.890Z,99984.35
2018-01-28T11:27:18.956Z,99979.80
2018-01-28T11:29:48.394Z,99991.75
2018-01-28T11:32:17.731Z,99988.25
2018-01-28T11:34:47.383Z,99979.77
2018-01-28T11:37:16.900Z,99966.45
2018-01-28T11:39:46.262Z,99971.77
2018-01-28T11:42:16.123Z,99982.69
2018-01-28T11:44:45.896Z,99978.16
2018-01-28T11:47:15.399Z,99985.66
2018-01-28T11:49:44.996Z,99992.26
2018-01-28T11:52:14.653Z,100000.87
2018-01-28T11:54:44.025Z,99996.85
2018-01-28T11:57:13.689Z,100002.19
2018-01-28T11:59:43.000Z,100001.66
2018-01-28T12:02:12.612Z,100003.44
2018-01-28T12:04:42.201Z,99990.96
2018-01-28T12:07:11.582Z,100010.63
2018-01-28T12:09:41.150Z,100021.44
2018-01-28T12:12:10.970Z,100006.98
2018-01-28T12:14:40.365Z,100003.44
2018-01-28T12:17:09.830Z,100006.63
2018-01-28T12:19:40.170Z,100001.09
2018-01-28T12:22:09.560Z,100000.92
2018-01-28T12:24:39.275Z,100005.94
2018-01-28T12:27:09.102Z,100010.31
2018-01-28T12:29:39.089Z,100002.47
2018-01-28T12:32:08.632Z,100009.22
2018-01-28T12:34:38.937Z,100023.31
2018-01-28T12:37:10.378Z,100020.35
2018-01-28T12:39:40.421Z,100014.60
2018-01-28T12:42:11.407Z,100021.86
2018-01-28T12:44:41.151Z,100027.02
2018-01-28T12:47:13.352Z,100014.90
2018-01-28T12:49:43.043Z,100023.95
2018-01-28T12:52:12.976Z,100016.52
2018-01-28T12:54:43.830Z,100007.00
2018-01-28T12:57:13.612Z,100005.56
2018-01-28T12:59:43.643Z,100001.23
2018-01-28T13:02:13.109Z,99986.66
2018-01-28T13:04:42.983Z,99992.70
2018-01-28T13:07:14.326Z,99979.17
2018-01-28T13:09:43.678Z,99967.77
2018-01-28T13:12:13.646Z,99972.74
2018-01-28T13:14:43.332Z,99962.67
2018-01-28T13:17:13.782Z,99970.30
2018-01-28T13:19:43.822Z,99964.63
2018-01-28T13:22:14.083Z,99965.06
2018-01-28T13:24:44.179Z,99962.98
2018-01-28T13:27:13.912Z,99965.38
2018-01-28T13:29:43.451Z,99974.10
2018-01-28T13:32:12.808Z,99981.16
2018-01-28T13:34:43.306Z,99990.50
2018-01-28T13:37:12.922Z,99985.23
2018-01-28T13:39:43.290Z,99978.56
2018-01-28T13:42:13.045Z,99990.61
2018-01-28T13:44:42.874Z,99992.77
2018-01-28T13:47:13.159Z,99995.84
2018-01-28T13:49:42.974Z,100001.98
2018-01-28T13:52:13.259Z,100000.35
2018-01-28T13:54:43.010Z,100001.17
2018-01-28T13:57:13.323Z,99995.64
2018-01-28T13:59:43.132Z,99998.93
2018-01-28T14:02:12.754Z,99990.94
2018-01-28T14:04:43.029Z,99990.31
2018-01-28T14:07:13.956Z,99998.89
2018-01-28T14:09:43.505Z,99983.08
2018-01-28T14:12:16.676Z,99986.52
2018-01-28T14:14:46.258Z,99967.33
2018-01-28T14:17:16.462Z,99960.89
2018-01-28T14:19:46.122Z,99963.08
2018-01-28T14:22:15.822Z,99975.53
2018-01-28T14:24:46.763Z,99981.27
2018-01-28T14:27:16.641Z,99981.51
2018-01-28T14:29:46.594Z,99980.56
2018-01-28T14:32:16.566Z,99970.70
2018-01-28T14:34:45.909Z,99976.50
2018-01-28T14:37:15.530Z,99971.96
2018-01-28T14:39:45.625Z,99980.03
2018-01-28T14:42:15.124Z,99983.91
2018-01-28T14:44:44.794Z,99986.28
2018-01-28T14:47:14.199Z,99987.23
2018-01-28T14:49:43.746Z,99994.72
2018-01-28T14:52:13.201Z,99989.31
2018-01-28T14:54:42.659Z,99973.25
2018-01-28T14:57:11.978Z,99981.25
2018-01-28T14:59:41.430Z,99988.35
2018-01-28T15:02:11.470Z,99992.22
2018-01-28T15:04:40.841Z,99994.09
2018-01-28T15:07:12.775Z,99997.08
2018-01-28T15:09:42.509Z,99983.49
2018-01-28T15:12:11.813Z,99993.19
2018-01-28T15:14:41.366Z,99994.42
2018-01-28T15:17:12.818Z,99989.80
2018-01-28T15:19:42.260Z,99988.69
2018-01-28T15:22:11.574Z,99983.86
2018-01-28T15:24:41.279Z,99979.77
2018-01-28T15:27:11.319Z,99974.97
2018-01-28T15:29:40.717Z,99975.95
2018-01-28T15:32:11.577Z,99955.84
2018-01-28T15:34:41.070Z,99965.92
2018-01-28T15:37:10.398Z,99968.11
2018-01-28T15:39:40.513Z,99976.31
2018-01-28T15:42:12.876Z,99982.62
2018-01-28T15:44:42.379Z,99983.48
2018-01-28T15:47:14.559Z,99980.79
2018-01-28T15:49:44.586Z,99984.99
2018-01-28T15:52:14.094Z,99981.27
2018-01-28T15:54:44.418Z,99980.04
2018-01-28T15:57:13.932Z,99986.81
2018-01-28T15:59:43.940Z,99989.70
2018-01-28T16:02:13.854Z,99991.55
2018-01-28T16:04:43.499Z,99993.97
2018-01-28T16:07:12.965Z,99990.67
2018-01-28T16:09:42.926Z,99985.39
2018-01-28T16:12:12.580Z,99988.87
2018-01-28T16:14:41.883Z,99992.96
2018-01-28T16:17:11.654Z,99996.28
2018-01-28T16:19:41.075Z,99994.78
2018-01-28T16:22:11.278Z,100004.77
2018-01-28T16:24:40.932Z,100008.55
2018-01-28T16:27:11.462Z,99999.82
2018-01-28T16:29:40.785Z,100003.06
2018-01-28T16:32:11.403Z,100008.17
2018-01-28T16:34:40.742Z,100006.25
2018-01-28T16:37:13.758Z,100012.22
2018-01-28T16:39:44.014Z,100013.94
2018-01-28T16:42:13.462Z,100017.93
2018-01-28T16:44:42.904Z,100016.11
2018-01-28T16:47:12.738Z,100012.51
2018-01-28T16:49:42.066Z,100009.52
2018-01-28T16:52:12.578Z,99997.41
2018-01-28T16:54:42.459Z,100007.86
2018-01-28T16:57:11.934Z,100005.64
2018-01-28T16:59:41.409Z,100005.55
2018-01-28T17:02:11.085Z,100003.70
2018-01-28T17:04:40.433Z,100002.91
2018-01-28T17:07:12.578Z,100003.11
2018-01-28T17:09:42.241Z,100001.58
2018-01-28T17:12:12.334Z,100001.70
2018-01-28T17:14:41.660Z,100000.64
2018-01-28T17:17:11.579Z,99999.47
2018-01-28T17:19:41.099Z,99988.97
2018-01-28T17:22:11.498Z,99997.20
2018-01-28T17:24:42.561Z,99993.79
2018-01-28T17:27:12.819Z,100002.47
2018-01-28T17:29:43.573Z,100010.48
2018-01-28T17:32:13.386Z,100006.87
2018-01-28T17:34:42.843Z,100007.94
2018-01-28T17:37:12.234Z,100009.28
2018-01-28T17:39:42.042Z,100003.70
2018-01-28T17:42:11.846Z,100004.16
2018-01-28T17:44:42.285Z,100012.14
2018-01-28T17:47:12.699Z,100005.91
2018-01-28T17:49:42.177Z,100002.50
2018-01-28T17:52:11.771Z,100003.39
2018-01-28T17:54:42.131Z,100008.73
2018-01-28T17:57:11.606Z,100003.76
2018-01-28T17:59:40.962Z,100002.02
2018-01-28T18:02:12.218Z,99979.30
2018-01-28T18:04:41.498Z,99976.84
2018-01-28T18:07:11.490Z,99976.95
2018-01-28T18:09:41.124Z,99982.07
2018-01-28T18:12:11.054Z,99982.12
2018-01-28T18:14:40.422Z,99976.39
2018-01-28T18:17:11.419Z,99974.50
2018-01-28T18:19:40.956Z,99973.31
2018-01-28T18:22:11.131Z,99978.99
2018-01-28T18:24:43.134Z,99975.08
2018-01-28T18:27:12.586Z,99970.20
2018-01-28T18:29:42.265Z,99967.12
2018-01-28T18:32:12.330Z,99968.38
2018-01-28T18:34:41.786Z,99962.73
2018-01-28T18:37:11.278Z,99973.78
2018-01-28T18:39:41.894Z,99958.50
2018-01-28T18:42:11.316Z,99979.09
2018-01-28T18:44:40.698Z,99976.61
2018-01-28T18:47:11.025Z,99965.55
2018-01-28T18:49:40.835Z,99974.62
2018-01-28T18:52:11.482Z,99974.76
2018-01-28T18:54:41.126Z,99963.16
2018-01-28T18:57:11.799Z,99958.00
2018-01-28T18:59:41.686Z,99961.64
2018-01-28T19:02:11.317Z,99960.06
2018-01-28T19:04:40.832Z,99964.55
2018-01-28T19:07:10.965Z,99967.50
2018-01-28T19:09:40.639Z,99959.83
2018-01-28T19:12:10.258Z,99972.89
2018-01-28T19:14:39.733Z,99968.41
2018-01-28T19:17:17.509Z,99966.52
2018-01-28T19:19:47.201Z,99969.73
2018-01-28T19:22:17.027Z,99972.73
2018-01-28T19:24:46.884Z,99965.20
2018-01-28T19:27:16.438Z,99952.63
2018-01-28T19:29:46.199Z,99956.70
2018-01-28T19:32:16.060Z,99963.73
2018-01-28T19:34:46.121Z,99965.13
2018-01-28T19:37:15.690Z,99963.91
2018-01-28T19:39:45.478Z,99961.73
2018-01-28T19:42:19.386Z,99966.17
2018-01-28T19:44:51.444Z,99971.03
2018-01-28T19:47:20.884Z,99964.16
2018-01-28T19:49:50.255Z,99970.50
2018-01-28T19:52:19.989Z,99963.76
2018-01-28T19:54:49.414Z,99969.30
2018-01-28T19:57:19.003Z,99977.52
2018-01-28T19:59:48.682Z,99978.75
2018-01-28T20:02:19.386Z,99980.36
2018-01-28T20:04:48.781Z,99975.88
2018-01-28T20:07:18.442Z,99973.55
2018-01-28T20:09:47.818Z,99969.66
2018-01-28T20:12:17.170Z,99964.13
2018-01-28T20:14:47.122Z,99960.77
2018-01-28T20:17:16.493Z,99967.56
2018-01-28T20:19:45.910Z,99970.75
2018-01-28T20:22:15.628Z,99975.89
2018-01-28T20:24:45.250Z,99978.30
2018-01-28T20:27:14.625Z,99969.95
2018-01-28T20:29:44.557Z,99973.75
2018-01-28T20:32:13.885Z,99977.31
2018-01-28T20:34:43.808Z,99977.42
2018-01-28T20:37:13.444Z,99972.16
2018-01-28T20:39:42.825Z,99976.34
2018-01-28T20:42:12.142Z,99983.45
2018-01-28T20:44:41.809Z,99974.33
2018-01-28T20:47:11.423Z,99976.20
2018-01-28T20:49:40.871Z,99977.09
2018-01-28T20:52:11.322Z,99979.31
2018-01-28T20:54:40.696Z,99972.80
2018-01-28T20:57:11.226Z,99974.12
2018-01-28T20:59:40.898Z,99972.86
2018-01-28T21:02:11.014Z,99971.05
2018-01-28T21:04:40.326Z,99981.14
2018-01-28T21:07:11.605Z,99976.52
2018-01-28T21:09:41.042Z,99991.79
2018-01-28T21:12:12.362Z,99974.80
2018-01-28T21:14:42.127Z,99974.89
2018-01-28T21:17:11.514Z,99979.41
2018-01-28T21:19:40.926Z,99974.08
2018-01-28T21:22:11.012Z,99986.59
2018-01-28T21:24:40.635Z,99984.08
2018-01-28T21:27:11.989Z,99975.41
2018-01-28T21:29:41.738Z,99984.45
2018-01-28T21:32:11.146Z,99982.61
2018-01-28T21:34:40.538Z,99980.55
2018-01-28T21:37:11.487Z,99976.38
2018-01-28T21:39:41.133Z,99977.95
2018-01-28T21:42:11.466Z,99971.30
2018-01-28T21:44:41.238Z,99972.97
2018-01-28T21:47:11.596Z,99977.44
2018-01-28T21:49:41.506Z,99965.86
2018-01-28T21:52:12.769Z,99961.39
2018-01-28T21:54:42.218Z,99968.77
2018-01-28T21:57:12.130Z,99959.12
2018-01-28T21:59:42.248Z,99959.31
2018-01-28T22:02:11.564Z,99964.42
2018-01-28T22:04:40.858Z,99960.66
2018-01-28T22:07:11.945Z,99960.28
2018-01-28T22:09:42.628Z,99959.12
2018-01-28T22:12:12.043Z,99969.52
2018-01-28T22:14:41.645Z,99966.98
2018-01-28T22:17:11.479Z,99961.89
2018-01-28T22:19:40.902Z,99956.48
2018-01-28T22:22:12.039Z,99957.97
2018-01-28T22:24:41.677Z,99958.81
2018-01-28T22:27:11.266Z,99953.44
2018-01-28T22:29:41.032Z,99957.91
2018-01-28T22:32:10.874Z,99957.44
2018-01-28T22:34:40.306Z,99955.53
2018-01-28T22:37:11.114Z,99947.95
2018-01-28T22:39:40.481Z,99961.27
2018-01-28T22:42:11.084Z,99949.58
2018-01-28T22:44:40.801Z,99955.21
2018-01-28T22:47:11.082Z,99943.06
2018-01-28T22:49:40.459Z,99936.67
2018-01-28T22:52:13.261Z,99940.02
2018-01-28T22:54:42.582Z,99947.28
2018-01-28T22:57:11.934Z,99938.70
2018-01-28T22:59:41.294Z,99939.00
2018-01-28T23:02:12.347Z,99926.53
2018-01-28T23:04:41.750Z,99932.42
2018-01-28T23:07:11.816Z,99926.59
2018-01-28T23:09:41.213Z,99926.49
2018-01-28T23:12:11.867Z,99925.96
2018-01-28T23:14:41.645Z,99926.86
2018-01-28T23:17:11.136Z,99924.73
2018-01-28T23:19:40.498Z,99916.98
2018-01-28T23:22:11.190Z,99910.89
2018-01-28T23:24:40.581Z,99922.77
2018-01-28T23:27:11.885Z,99921.56
2018-01-28T23:29:41.218Z,99918.68
2018-01-28T23:32:10.883Z,99923.36
2018-01-28T23:34:40.254Z,99929.84
2018-01-28T23:37:11.717Z,99925.74
2018-01-28T23:39:41.440Z,99927.17
2018-01-28T23:42:11.998Z,99932.48
2018-01-28T23:44:41.389Z,99923.16
2018-01-28T23:47:10.874Z,99926.34
2018-01-28T23:49:42.146Z,99933.08
2018-01-28T23:52:11.736Z,99930.84
2018-01-28T23:54:41.230Z,99927.59
2018-01-28T23:57:11.816Z,99924.64
2018-01-28T23:59:43.386Z,99920.54
